createdAt,value
2023-08-19T00:00:20.455Z,60.52
2023-08-19T00:02:47.646Z,60.04
2023-08-19T00:05:14.909Z,60.27
2023-08-19T00:07:42.058Z,60.85
2023-08-19T00:10:09.422Z,59.90
2023-08-19T00:12:36.842Z,59.79
2023-08-19T00:15:04.395Z,59.56
2023-08-19T00:17:31.911Z,60.38
2023-08-19T00:19:59.291Z,59.99
2023-08-19T00:22:26.403Z,60.19
2023-08-19T00:24:53.661Z,60.68
2023-08-19T00:27:21.028Z,61.06
2023-08-19T00:29:48.304Z,61.25
2023-08-19T00:32:16.543Z,61.81
2023-08-19T00:34:44.414Z,61.77
2023-08-19T00:37:11.785Z,61.83
2023-08-19T00:39:39.021Z,61.44
2023-08-19T00:42:08.038Z,61.70
2023-08-19T00:44:35.497Z,61.53
2023-08-19T00:47:03.197Z,61.08
2023-08-19T00:49:31.428Z,61.27
2023-08-19T00:51:59.812Z,61.86
2023-08-19T00:54:27.109Z,61.90
2023-08-19T00:56:54.466Z,62.13
2023-08-19T00:59:22.430Z,62.25
2023-08-19T01:01:49.655Z,62.37
2023-08-19T01:04:16.937Z,62.43
2023-08-19T01:07:25.478Z,62.58
2023-08-19T01:10:04.552Z,63.01
2023-08-19T01:12:43.884Z,62.03
2023-08-19T01:15:58.504Z,61.67
2023-08-19T01:18:28.138Z,61.92
2023-08-19T01:20:56.002Z,62.24
2023-08-19T01:23:38.959Z,62.66
2023-08-19T01:26:07.169Z,62.62
2023-08-19T01:28:34.361Z,62.61
2023-08-19T01:31:01.825Z,62.79
2023-08-19T01:33:32.984Z,62.66
2023-08-19T01:36:29.434Z,62.35
2023-08-19T01:39:02.829Z,61.40
2023-08-19T01:41:31.791Z,62.26
2023-08-19T01:44:01.198Z,62.52
2023-08-19T01:46:29.118Z,62.22
2023-08-19T01:48:56.495Z,62.50
2023-08-19T01:51:23.916Z,62.69
2023-08-19T01:53:51.340Z,62.39
2023-08-19T01:56:19.041Z,62.67
2023-08-19T01:58:46.493Z,62.71
2023-08-19T02:01:14.531Z,62.55
2023-08-19T02:03:41.830Z,62.24
2023-08-19T02:06:09.158Z,61.88
2023-08-19T02:08:36.510Z,62.10
2023-08-19T02:11:03.787Z,61.75
2023-08-19T02:13:31.239Z,61.54
2023-08-19T02:15:58.506Z,61.24
2023-08-19T02:18:26.747Z,60.72
2023-08-19T02:20:54.249Z,61.14
2023-08-19T02:23:21.388Z,61.32
2023-08-19T02:25:51.261Z,59.80
2023-08-19T02:28:18.436Z,61.09
2023-08-19T02:30:45.688Z,60.88
2023-08-19T02:33:12.996Z,61.21
2023-08-19T02:35:40.277Z,60.72
2023-08-19T02:38:08.446Z,61.08
2023-08-19T02:40:35.606Z,61.98
2023-08-19T02:43:03.800Z,62.74
2023-08-19T02:45:36.483Z,62.25
2023-08-19T02:48:04.343Z,60.96
2023-08-19T02:50:31.782Z,61.33
2023-08-19T02:52:59.163Z,61.25
2023-08-19T02:55:26.599Z,62.02
2023-08-19T02:57:53.989Z,62.06
2023-08-19T03:00:21.455Z,61.48
2023-08-19T03:02:49.260Z,61.00
2023-08-19T03:05:16.545Z,61.95
2023-08-19T03:07:43.784Z,61.55
2023-08-19T03:10:11.271Z,62.35
2023-08-19T03:12:38.638Z,62.27
2023-08-19T03:15:06.460Z,61.50
2023-08-19T03:17:33.934Z,61.48
2023-08-19T03:20:01.781Z,61.32
2023-08-19T03:22:30.060Z,62.27
2023-08-19T03:24:58.016Z,62.03
2023-08-19T03:27:25.497Z,62.96
2023-08-19T03:29:52.796Z,62.34
2023-08-19T03:32:20.157Z,62.14
2023-08-19T03:34:47.628Z,63.61
2023-08-19T03:37:15.011Z,63.16
2023-08-19T03:39:42.389Z,63.92
2023-08-19T03:42:09.647Z,63.73
2023-08-19T03:44:36.879Z,64.15
2023-08-19T03:47:04.909Z,63.67
2023-08-19T03:49:32.400Z,62.94
2023-08-19T03:51:59.779Z,63.74
2023-08-19T03:54:27.312Z,63.94
2023-08-19T03:56:54.656Z,62.53
2023-08-19T03:59:21.955Z,62.65
2023-08-19T04:01:49.283Z,61.89
2023-08-19T04:04:16.768Z,62.15
2023-08-19T04:06:44.059Z,62.95
2023-08-19T04:09:13.634Z,63.29
2023-08-19T04:11:40.912Z,63.46
2023-08-19T04:14:08.170Z,63.24
2023-08-19T04:16:38.425Z,62.77
2023-08-19T04:19:05.751Z,61.96
2023-08-19T04:21:33.245Z,60.58
2023-08-19T04:24:00.501Z,61.18
2023-08-19T04:26:27.660Z,61.78
2023-08-19T04:28:55.098Z,63.19
2023-08-19T04:31:23.607Z,62.62
2023-08-19T04:33:54.881Z,63.14
2023-08-19T04:36:23.118Z,63.45
2023-08-19T04:38:50.615Z,63.80
2023-08-19T04:41:18.786Z,63.52
2023-08-19T04:43:47.864Z,64.16
2023-08-19T04:46:16.746Z,63.39
2023-08-19T04:48:44.204Z,64.01
2023-08-19T04:51:11.525Z,64.05
2023-08-19T04:53:38.728Z,64.58
2023-08-19T04:56:06.082Z,64.72
2023-08-19T04:58:36.371Z,62.86
2023-08-19T05:01:04.162Z,62.39
2023-08-19T05:03:33.828Z,61.25
2023-08-19T05:06:01.634Z,61.80
2023-08-19T05:08:36.576Z,62.67
2023-08-19T05:11:04.121Z,62.33
2023-08-19T05:13:31.428Z,61.90
2023-08-19T05:16:01.982Z,61.34
2023-08-19T05:18:29.829Z,60.78
2023-08-19T05:20:57.050Z,60.84
2023-08-19T05:23:25.164Z,61.04
2023-08-19T05:25:52.652Z,60.69
2023-08-19T05:28:19.886Z,60.78
2023-08-19T05:30:47.084Z,60.72
2023-08-19T05:33:14.391Z,60.12
2023-08-19T05:35:41.726Z,60.39
2023-08-19T05:38:09.010Z,60.72
2023-08-19T05:40:36.341Z,60.86
2023-08-19T05:43:03.885Z,60.37
2023-08-19T05:45:34.298Z,59.59
2023-08-19T05:48:01.618Z,59.62
2023-08-19T05:50:28.940Z,59.71
2023-08-19T05:52:56.344Z,59.28
2023-08-19T05:55:23.577Z,58.96
2023-08-19T05:57:50.971Z,58.88
2023-08-19T06:00:18.179Z,58.94
2023-08-19T06:02:45.422Z,58.26
2023-08-19T06:05:12.733Z,57.99
2023-08-19T06:07:39.983Z,57.96
2023-08-19T06:10:07.471Z,57.43
2023-08-19T06:12:34.856Z,57.25
2023-08-19T06:15:02.041Z,56.87
2023-08-19T06:17:29.239Z,56.71
2023-08-19T06:19:56.483Z,57.00
2023-08-19T06:22:23.832Z,56.24
2023-08-19T06:24:50.992Z,55.70
2023-08-19T06:27:18.144Z,56.14
2023-08-19T06:29:45.379Z,55.67
2023-08-19T06:32:13.128Z,55.94
2023-08-19T06:34:41.639Z,55.17
2023-08-19T06:37:13.222Z,56.17
2023-08-19T06:39:46.576Z,55.49
2023-08-19T06:42:16.230Z,54.11
2023-08-19T06:44:44.731Z,52.69
2023-08-19T06:47:14.059Z,52.15
2023-08-19T06:49:41.436Z,51.02
2023-08-19T06:52:10.371Z,50.44
2023-08-19T06:54:37.824Z,49.72
2023-08-19T06:57:11.025Z,49.42
2023-08-19T06:59:40.091Z,48.89
2023-08-19T07:02:09.542Z,47.96
2023-08-19T07:04:37.247Z,47.21
2023-08-19T07:07:05.821Z,46.48
2023-08-19T07:09:35.200Z,44.96
2023-08-19T07:12:03.461Z,44.94
2023-08-19T07:14:30.960Z,43.72
2023-08-19T07:17:04.618Z,44.04
2023-08-19T07:19:38.351Z,42.99
2023-08-19T07:22:08.836Z,41.87
2023-08-19T07:24:36.561Z,41.62
2023-08-19T07:27:06.365Z,41.16
2023-08-19T07:29:36.237Z,40.28
2023-08-19T07:32:04.366Z,40.24
2023-08-19T07:34:31.722Z,40.12
2023-08-19T07:36:59.480Z,40.18
2023-08-19T07:39:27.988Z,40.85
2023-08-19T07:41:55.303Z,40.46
2023-08-19T07:44:22.771Z,41.42
2023-08-19T07:46:50.148Z,41.92
2023-08-19T07:49:17.379Z,41.00
2023-08-19T07:51:44.629Z,39.43
2023-08-19T07:54:11.965Z,39.13
2023-08-19T07:56:39.178Z,39.46
2023-08-19T07:59:06.580Z,38.62
2023-08-19T08:01:34.159Z,38.57
2023-08-19T08:04:01.637Z,39.25
2023-08-19T08:06:29.010Z,37.90
2023-08-19T08:08:56.328Z,36.94
2023-08-19T08:11:23.619Z,36.76
2023-08-19T08:13:50.821Z,35.90
2023-08-19T08:16:18.006Z,35.05
2023-08-19T08:18:45.230Z,35.16
2023-08-19T08:21:13.823Z,34.50
2023-08-19T08:23:41.778Z,34.69
2023-08-19T08:26:09.735Z,34.10
2023-08-19T08:28:37.685Z,34.25
2023-08-19T08:31:05.513Z,34.29
2023-08-19T08:33:32.825Z,34.99
2023-08-19T08:36:01.613Z,34.07
2023-08-19T08:38:28.854Z,35.62
2023-08-19T08:40:58.356Z,33.42
2023-08-19T08:43:26.133Z,33.64
2023-08-19T08:45:54.589Z,32.69
2023-08-19T08:48:23.333Z,31.71
2023-08-19T08:50:51.309Z,31.42
2023-08-19T08:53:19.358Z,31.92
2023-08-19T08:55:47.104Z,31.05
2023-08-19T08:58:14.474Z,30.91
2023-08-19T09:00:42.743Z,30.16
2023-08-19T09:03:11.404Z,30.14
2023-08-19T09:05:42.157Z,30.63
2023-08-19T09:08:14.832Z,30.10
2023-08-19T09:10:44.640Z,30.66
2023-08-19T09:13:15.344Z,29.92
2023-08-19T09:15:42.833Z,30.10
2023-08-19T09:18:11.046Z,30.55
2023-08-19T09:20:38.381Z,31.13
2023-08-19T09:23:11.093Z,31.32
2023-08-19T09:25:39.229Z,30.34
2023-08-19T09:28:07.158Z,31.66
2023-08-19T09:30:35.533Z,31.58
2023-08-19T09:33:03.756Z,31.68
2023-08-19T09:35:57.041Z,32.49
2023-08-19T09:38:26.890Z,30.19
2023-08-19T09:40:59.393Z,30.49
2023-08-19T09:43:27.432Z,29.30
2023-08-19T09:46:01.718Z,29.74
2023-08-19T09:48:28.979Z,29.90
2023-08-19T09:50:56.227Z,28.86
2023-08-19T09:53:23.553Z,29.47
2023-08-19T09:55:51.741Z,30.02
2023-08-19T09:58:18.980Z,32.35
2023-08-19T10:00:47.171Z,29.93
2023-08-19T10:03:16.291Z,31.54
2023-08-19T10:05:50.379Z,31.06
2023-08-19T10:08:24.371Z,31.08
2023-08-19T10:10:51.896Z,30.36
2023-08-19T10:13:23.018Z,32.10
2023-08-19T10:15:52.680Z,30.11
2023-08-19T10:18:26.473Z,30.84
2023-08-19T10:21:00.165Z,32.57
2023-08-19T10:23:29.164Z,30.12
2023-08-19T10:25:56.509Z,31.34
2023-08-19T10:28:26.257Z,31.43
2023-08-19T10:31:16.687Z,31.59
2023-08-19T10:34:00.094Z,32.05
2023-08-19T10:36:41.000Z,33.92
2023-08-19T10:39:18.285Z,32.75
2023-08-19T10:41:45.588Z,33.91
2023-08-19T10:44:14.157Z,32.27
2023-08-19T10:46:46.724Z,32.79
2023-08-19T10:49:24.828Z,32.64
2023-08-19T10:52:04.749Z,33.43
2023-08-19T10:54:40.047Z,31.86
2023-08-19T10:57:22.261Z,32.62
2023-08-19T10:59:57.563Z,30.70
2023-08-19T11:02:26.154Z,30.94
2023-08-19T11:04:54.645Z,32.62
2023-08-19T11:07:22.575Z,31.35
2023-08-19T11:09:51.332Z,31.81
2023-08-19T11:12:20.878Z,31.76
2023-08-19T11:14:49.820Z,31.83
2023-08-19T11:17:18.256Z,32.23
2023-08-19T11:19:47.392Z,32.18
2023-08-19T11:22:15.886Z,31.69
2023-08-19T11:24:43.179Z,31.08
2023-08-19T11:27:10.575Z,31.67
2023-08-19T11:29:41.576Z,30.87
2023-08-19T11:32:09.192Z,31.08
2023-08-19T11:34:36.418Z,31.64
2023-08-19T11:37:06.903Z,31.26
2023-08-19T11:39:34.553Z,30.63
2023-08-19T11:42:03.722Z,30.52
2023-08-19T11:44:32.437Z,29.79
2023-08-19T11:46:59.932Z,29.98
2023-08-19T11:49:31.039Z,30.00
2023-08-19T11:51:59.759Z,30.01
2023-08-19T11:54:27.733Z,30.09
2023-08-19T11:57:00.306Z,30.59
2023-08-19T11:59:35.287Z,30.44
2023-08-19T12:02:09.418Z,30.04
2023-08-19T12:04:36.960Z,29.45
2023-08-19T12:07:13.802Z,29.26
2023-08-19T12:09:41.384Z,27.85
2023-08-19T12:12:11.082Z,27.62
2023-08-19T12:14:40.495Z,28.71
2023-08-19T12:17:08.615Z,28.42
2023-08-19T12:19:36.528Z,29.31
2023-08-19T12:22:05.349Z,28.28
2023-08-19T12:24:33.383Z,28.58
2023-08-19T12:27:00.627Z,27.87
2023-08-19T12:29:29.649Z,28.12
2023-08-19T12:31:56.826Z,27.86
2023-08-19T12:34:24.064Z,27.66
2023-08-19T12:36:52.578Z,28.33
2023-08-19T12:39:21.111Z,27.83
2023-08-19T12:41:48.905Z,27.80
2023-08-19T12:44:16.357Z,27.87
2023-08-19T12:46:45.518Z,28.09
2023-08-19T12:49:13.879Z,28.14
2023-08-19T12:51:41.406Z,27.79
2023-08-19T12:54:10.208Z,27.83
2023-08-19T12:56:37.578Z,27.18
2023-08-19T12:59:05.013Z,27.16
2023-08-19T13:01:32.354Z,27.57
2023-08-19T13:03:59.636Z,26.89
2023-08-19T13:06:26.965Z,26.13
2023-08-19T13:08:54.902Z,26.51
2023-08-19T13:11:22.763Z,26.65
2023-08-19T13:13:50.047Z,26.33
2023-08-19T13:16:17.288Z,26.10
2023-08-19T13:18:44.559Z,25.95
2023-08-19T13:21:11.982Z,26.01
2023-08-19T13:23:42.383Z,25.89
2023-08-19T13:26:10.161Z,26.22
2023-08-19T13:28:37.389Z,26.34
2023-08-19T13:31:05.967Z,26.33
2023-08-19T13:33:33.452Z,25.99
2023-08-19T13:36:00.778Z,25.51
2023-08-19T13:38:28.093Z,25.45
2023-08-19T13:40:55.341Z,25.66
2023-08-19T13:43:22.750Z,25.59
2023-08-19T13:45:49.969Z,25.44
2023-08-19T13:48:17.400Z,25.77
2023-08-19T13:50:45.572Z,25.52
2023-08-19T13:53:13.042Z,25.29
2023-08-19T13:55:43.078Z,25.46
2023-08-19T13:58:11.124Z,25.21
2023-08-19T14:00:38.480Z,24.75
2023-08-19T14:03:05.770Z,25.60
2023-08-19T14:05:33.147Z,25.35
2023-08-19T14:08:01.192Z,26.06
2023-08-19T14:10:28.418Z,25.47
2023-08-19T14:12:55.628Z,25.71
2023-08-19T14:15:22.985Z,25.10
2023-08-19T14:17:50.594Z,24.93
2023-08-19T14:20:17.844Z,25.39
2023-08-19T14:22:45.007Z,25.10
2023-08-19T14:25:12.274Z,24.72
2023-08-19T14:27:40.083Z,25.27
2023-08-19T14:30:07.858Z,25.52
2023-08-19T14:32:35.318Z,25.21
2023-08-19T14:35:02.663Z,25.67
2023-08-19T14:37:30.032Z,25.76
2023-08-19T14:39:57.239Z,25.77
2023-08-19T14:42:24.455Z,25.44
2023-08-19T14:44:52.140Z,25.61
2023-08-19T14:47:19.591Z,25.39
2023-08-19T14:49:48.034Z,25.24
2023-08-19T14:52:19.065Z,25.81
2023-08-19T14:54:46.330Z,25.69
2023-08-19T14:57:13.565Z,25.66
2023-08-19T14:59:40.725Z,26.11
2023-08-19T15:02:09.049Z,26.65
2023-08-19T15:04:36.425Z,26.58
2023-08-19T15:07:03.959Z,26.27
2023-08-19T15:09:31.368Z,25.73
2023-08-19T15:12:01.276Z,26.57
2023-08-19T15:14:28.708Z,26.65
2023-08-19T15:16:55.948Z,26.58
2023-08-19T15:19:23.078Z,26.54
2023-08-19T15:21:50.301Z,26.95
2023-08-19T15:24:17.519Z,26.80
2023-08-19T15:26:44.764Z,26.92
2023-08-19T15:29:12.129Z,27.01
2023-08-19T15:31:39.335Z,26.63
2023-08-19T15:34:06.573Z,27.28
2023-08-19T15:36:33.812Z,27.71
2023-08-19T15:39:01.026Z,27.54
2023-08-19T15:41:29.655Z,27.18
2023-08-19T15:43:58.437Z,26.73
2023-08-19T15:46:25.689Z,27.07
2023-08-19T15:48:53.330Z,27.18
2023-08-19T15:51:20.513Z,26.99
2023-08-19T15:53:48.325Z,26.97
2023-08-19T15:56:15.534Z,27.51
2023-08-19T15:58:42.856Z,27.42
2023-08-19T16:01:10.527Z,26.24
2023-08-19T16:03:39.119Z,27.14
2023-08-19T16:06:06.304Z,27.74
2023-08-19T16:08:33.702Z,27.60
2023-08-19T16:11:05.841Z,27.62
2023-08-19T16:13:33.780Z,27.85
2023-08-19T16:16:01.693Z,26.37
2023-08-19T16:18:33.071Z,27.25
2023-08-19T16:21:00.822Z,27.64
2023-08-19T16:23:29.386Z,27.82
2023-08-19T16:25:56.820Z,28.08
2023-08-19T16:28:24.126Z,28.37
2023-08-19T16:30:51.727Z,28.12
2023-08-19T16:33:19.369Z,27.99
2023-08-19T16:35:46.793Z,27.78
2023-08-19T16:38:14.284Z,28.86
2023-08-19T16:40:41.626Z,28.38
2023-08-19T16:43:08.994Z,27.99
2023-08-19T16:45:36.210Z,28.61
2023-08-19T16:48:04.362Z,29.25
2023-08-19T16:50:31.562Z,29.27
2023-08-19T16:52:58.788Z,28.22
2023-08-19T16:55:26.061Z,28.96
2023-08-19T16:57:53.216Z,30.92
2023-08-19T17:00:23.950Z,28.64
2023-08-19T17:02:51.314Z,29.38
2023-08-19T17:05:18.637Z,30.14
2023-08-19T17:07:45.887Z,30.40
2023-08-19T17:10:13.105Z,30.03
2023-08-19T17:12:40.321Z,30.18
2023-08-19T17:15:07.882Z,31.31
2023-08-19T17:17:35.473Z,31.76
2023-08-19T17:20:04.843Z,32.29
2023-08-19T17:22:38.925Z,32.89
2023-08-19T17:25:06.642Z,34.67
2023-08-19T17:27:34.207Z,33.84
2023-08-19T17:30:01.668Z,34.48
2023-08-19T17:32:29.466Z,35.29
2023-08-19T17:34:56.679Z,35.42
2023-08-19T17:37:23.989Z,36.49
2023-08-19T17:39:51.404Z,37.38
2023-08-19T17:42:19.627Z,37.53
2023-08-19T17:44:54.313Z,37.62
2023-08-19T17:47:21.618Z,37.86
2023-08-19T17:49:49.039Z,38.57
2023-08-19T17:52:16.455Z,38.38
2023-08-19T17:54:43.958Z,38.79
2023-08-19T17:57:13.984Z,39.47
2023-08-19T17:59:41.362Z,39.41
2023-08-19T18:02:08.800Z,39.67
2023-08-19T18:04:36.182Z,40.26
2023-08-19T18:07:03.656Z,40.62
2023-08-19T18:09:30.961Z,40.66
2023-08-19T18:11:58.322Z,40.93
2023-08-19T18:14:25.615Z,41.18
2023-08-19T18:16:53.859Z,42.31
2023-08-19T18:19:35.903Z,42.19
2023-08-19T18:22:05.356Z,42.36
2023-08-19T18:24:35.268Z,43.31
2023-08-19T18:27:03.881Z,43.49
2023-08-19T18:29:31.736Z,43.57
2023-08-19T18:31:58.985Z,44.16
2023-08-19T18:34:26.333Z,44.43
2023-08-19T18:36:53.776Z,44.35
2023-08-19T18:39:21.047Z,44.79
2023-08-19T18:41:48.289Z,44.90
2023-08-19T18:44:16.276Z,44.53
2023-08-19T18:46:43.984Z,44.77
2023-08-19T18:49:11.700Z,44.65
2023-08-19T18:51:39.119Z,44.56
2023-08-19T18:54:06.816Z,44.57
2023-08-19T18:56:34.757Z,45.09
2023-08-19T18:59:02.956Z,45.45
2023-08-19T19:01:30.333Z,45.07
2023-08-19T19:03:59.197Z,45.16
2023-08-19T19:06:26.592Z,45.03
2023-08-19T19:08:58.986Z,44.98
2023-08-19T19:11:26.353Z,45.04
2023-08-19T19:13:53.512Z,45.35
2023-08-19T19:16:20.721Z,44.97
2023-08-19T19:18:47.918Z,44.98
2023-08-19T19:21:15.103Z,45.19
2023-08-19T19:23:42.276Z,45.23
2023-08-19T19:26:09.550Z,45.80
2023-08-19T19:28:36.777Z,45.58
2023-08-19T19:31:05.970Z,46.66
2023-08-19T19:33:33.379Z,46.48
2023-08-19T19:36:00.545Z,46.92
2023-08-19T19:38:27.629Z,46.91
2023-08-19T19:40:58.114Z,46.19
2023-08-19T19:43:25.365Z,46.52
2023-08-19T19:45:53.567Z,46.42
2023-08-19T19:48:20.756Z,46.48
2023-08-19T19:50:47.908Z,47.36
2023-08-19T19:53:15.457Z,47.62
2023-08-19T19:55:42.924Z,46.88
2023-08-19T19:58:10.115Z,47.27
2023-08-19T20:00:37.724Z,46.91
2023-08-19T20:03:05.132Z,47.64
2023-08-19T20:05:32.388Z,48.13
2023-08-19T20:07:59.537Z,48.33
2023-08-19T20:10:28.383Z,49.64
2023-08-19T20:12:56.466Z,49.88
2023-08-19T20:15:25.905Z,49.86
2023-08-19T20:17:54.572Z,49.98
2023-08-19T20:20:21.812Z,49.93
2023-08-19T20:22:49.815Z,50.06
2023-08-19T20:25:17.080Z,50.24
2023-08-19T20:27:44.558Z,50.64
2023-08-19T20:30:12.306Z,51.14
2023-08-19T20:32:39.699Z,50.49
2023-08-19T20:35:07.684Z,50.92
2023-08-19T20:37:35.264Z,51.02
2023-08-19T20:40:02.580Z,50.99
2023-08-19T20:42:29.904Z,50.62
2023-08-19T20:44:57.033Z,51.51
2023-08-19T20:47:24.312Z,51.65
2023-08-19T20:49:51.550Z,51.88
2023-08-19T20:52:18.859Z,51.91
2023-08-19T20:54:46.124Z,52.29
2023-08-19T20:57:13.451Z,52.36
2023-08-19T20:59:40.586Z,52.43
2023-08-19T21:02:07.898Z,52.98
2023-08-19T21:04:35.196Z,52.88
2023-08-19T21:07:02.364Z,52.74
2023-08-19T21:09:29.523Z,52.93
2023-08-19T21:11:56.750Z,53.18
2023-08-19T21:14:23.988Z,53.44
2023-08-19T21:16:51.142Z,53.47
2023-08-19T21:19:18.275Z,52.43
2023-08-19T21:21:45.835Z,52.19
2023-08-19T21:24:13.110Z,54.14
2023-08-19T21:26:40.252Z,54.44
2023-08-19T21:29:07.438Z,54.29
2023-08-19T21:31:34.610Z,54.88
2023-08-19T21:34:01.825Z,54.58
2023-08-19T21:36:29.107Z,53.28
2023-08-19T21:38:56.480Z,53.77
2023-08-19T21:41:23.745Z,52.41
2023-08-19T21:43:50.921Z,54.31
2023-08-19T21:46:18.073Z,54.18
2023-08-19T21:48:47.301Z,54.29
2023-08-19T21:51:14.792Z,54.23
2023-08-19T21:53:42.654Z,54.35
2023-08-19T21:56:10.062Z,54.67
2023-08-19T21:58:37.169Z,54.69
2023-08-19T22:01:04.808Z,54.72
2023-08-19T22:03:33.899Z,54.34
2023-08-19T22:06:04.494Z,53.32
2023-08-19T22:08:31.879Z,54.24
2023-08-19T22:11:00.393Z,54.30
2023-08-19T22:13:27.735Z,54.72
2023-08-19T22:15:54.991Z,54.14
2023-08-19T22:18:22.149Z,54.59
2023-08-19T22:20:51.639Z,55.26
2023-08-19T22:23:19.812Z,55.34
2023-08-19T22:25:47.069Z,55.95
2023-08-19T22:28:14.507Z,55.84
2023-08-19T22:30:41.880Z,56.02
2023-08-19T22:33:09.238Z,55.88
2023-08-19T22:35:36.752Z,55.87
2023-08-19T22:38:04.262Z,55.71
2023-08-19T22:40:31.526Z,55.63
2023-08-19T22:42:58.796Z,55.77
2023-08-19T22:45:26.006Z,56.10
2023-08-19T22:47:53.273Z,56.35
2023-08-19T22:50:20.583Z,56.05
2023-08-19T22:52:47.984Z,55.57
2023-08-19T22:55:15.230Z,55.70
2023-08-19T22:57:46.009Z,55.40
2023-08-19T23:00:13.554Z,55.43
2023-08-19T23:02:40.996Z,55.47
2023-08-19T23:05:08.782Z,55.16
2023-08-19T23:07:36.958Z,54.93
2023-08-19T23:10:05.202Z,55.06
2023-08-19T23:12:32.479Z,54.83
2023-08-19T23:14:59.714Z,54.76
2023-08-19T23:17:27.096Z,54.51
2023-08-19T23:19:54.419Z,54.60
2023-08-19T23:22:21.885Z,54.91
2023-08-19T23:24:49.029Z,54.85
2023-08-19T23:27:16.178Z,55.11
2023-08-19T23:29:43.517Z,54.70
2023-08-19T23:32:10.721Z,55.35
2023-08-19T23:34:38.043Z,55.43
2023-08-19T23:37:05.247Z,55.35
2023-08-19T23:39:32.495Z,55.64
2023-08-19T23:41:59.574Z,55.81
2023-08-19T23:44:26.823Z,56.54
2023-08-19T23:46:54.201Z,55.97
2023-08-19T23:49:21.721Z,56.12
2023-08-19T23:51:49.864Z,55.44
2023-08-19T23:54:17.301Z,55.51
2023-08-19T23:56:44.732Z,55.69
2023-08-19T23:59:12.138Z,55.80
